createdAt,value
2018-11-03T00:02:12.617Z,10.93
2018-11-03T00:04:40.466Z,9.67
2018-11-03T00:07:08.597Z,9.43
2018-11-03T00:09:36.450Z,9.97
2018-11-03T00:12:05.654Z,9.50
2018-11-03T00:14:33.550Z,12.03
2018-11-03T00:17:01.519Z,8.53
2018-11-03T00:19:29.382Z,9.23
2018-11-03T00:21:57.229Z,8.00
2018-11-03T00:24:25.068Z,8.47
2018-11-03T00:26:52.970Z,8.67
2018-11-03T00:29:20.886Z,8.10
2018-11-03T00:31:49.067Z,8.80
2018-11-03T00:34:16.868Z,8.10
2018-11-03T00:36:46.021Z,8.30
2018-11-03T00:39:13.772Z,8.40
2018-11-03T00:41:41.814Z,8.67
2018-11-03T00:44:09.837Z,9.00
2018-11-03T00:46:37.969Z,9.50
2018-11-03T00:49:05.758Z,9.87
2018-11-03T00:51:33.597Z,10.20
2018-11-03T00:54:01.432Z,11.73
2018-11-03T00:56:29.233Z,13.03
2018-11-03T00:58:57.060Z,13.80
2018-11-03T01:01:24.903Z,13.23
2018-11-03T01:03:53.935Z,13.63
2018-11-03T01:06:21.895Z,13.23
2018-11-03T01:08:49.882Z,13.40
2018-11-03T01:11:17.708Z,12.73
2018-11-03T01:13:45.509Z,13.23
2018-11-03T01:16:13.285Z,12.43
2018-11-03T01:18:41.135Z,11.43
2018-11-03T01:21:09.009Z,10.27
2018-11-03T01:23:36.878Z,9.10
2018-11-03T01:26:04.661Z,10.00
2018-11-03T01:28:32.484Z,10.30
2018-11-03T01:31:00.349Z,9.93
2018-11-03T01:33:28.157Z,9.90
2018-11-03T01:35:55.945Z,9.60
2018-11-03T01:38:23.721Z,9.70
2018-11-03T01:40:51.725Z,10.30
2018-11-03T01:43:19.546Z,10.37
2018-11-03T01:45:47.320Z,10.30
2018-11-03T01:48:15.095Z,10.50
2018-11-03T01:50:42.851Z,10.00
2018-11-03T01:53:10.670Z,10.93
2018-11-03T01:55:38.440Z,10.50
2018-11-03T01:58:06.231Z,10.90
2018-11-03T02:00:34.037Z,9.90
2018-11-03T02:03:01.949Z,10.10
2018-11-03T02:05:31.153Z,12.87
2018-11-03T02:08:01.321Z,11.80
2018-11-03T02:10:29.200Z,12.63
2018-11-03T02:12:57.109Z,12.07
2018-11-03T02:15:24.941Z,13.73
2018-11-03T02:17:52.729Z,11.07
2018-11-03T02:20:20.500Z,11.30
2018-11-03T02:22:48.297Z,10.80
2018-11-03T02:25:16.080Z,11.03
2018-11-03T02:27:43.895Z,10.27
2018-11-03T02:30:11.999Z,10.50
2018-11-03T02:32:40.065Z,9.70
2018-11-03T02:35:09.097Z,10.23
2018-11-03T02:37:37.409Z,10.33
2018-11-03T02:40:06.341Z,9.90
2018-11-03T02:42:34.115Z,10.27
2018-11-03T02:45:01.977Z,10.50
2018-11-03T02:47:29.965Z,10.80
2018-11-03T02:49:57.733Z,10.07
2018-11-03T02:52:25.501Z,11.47
2018-11-03T02:54:53.337Z,11.20
2018-11-03T02:57:21.162Z,11.60
2018-11-03T02:59:49.295Z,11.60
2018-11-03T03:02:17.373Z,12.00
2018-11-03T03:04:45.343Z,12.13
2018-11-03T03:07:13.184Z,13.23
2018-11-03T03:09:41.032Z,13.17
2018-11-03T03:12:11.298Z,12.60
2018-11-03T03:14:39.224Z,13.33
2018-11-03T03:17:07.126Z,15.03
2018-11-03T03:19:35.005Z,14.43
2018-11-03T03:22:02.958Z,14.07
2018-11-03T03:24:30.814Z,12.43
2018-11-03T03:26:58.948Z,12.30
2018-11-03T03:29:26.796Z,12.10
2018-11-03T03:31:54.592Z,12.77
2018-11-03T03:34:22.481Z,13.93
2018-11-03T03:36:50.321Z,14.23
2018-11-03T03:39:18.428Z,14.00
2018-11-03T03:41:46.409Z,14.20
2018-11-03T03:44:15.017Z,14.13
2018-11-03T03:46:42.965Z,14.97
2018-11-03T03:49:10.750Z,14.80
2018-11-03T03:51:38.633Z,14.07
2018-11-03T03:54:06.816Z,13.97
2018-11-03T03:56:34.667Z,14.40
2018-11-03T03:59:03.176Z,13.53
2018-11-03T04:01:31.204Z,14.63
2018-11-03T04:03:58.994Z,15.17
2018-11-03T04:06:26.813Z,14.17
2018-11-03T04:08:54.647Z,14.67
2018-11-03T04:11:22.513Z,14.40
2018-11-03T04:13:50.468Z,15.27
2018-11-03T04:16:18.281Z,14.43
2018-11-03T04:18:46.131Z,13.57
2018-11-03T04:21:17.750Z,13.87
2018-11-03T04:23:45.563Z,13.20
2018-11-03T04:26:13.409Z,12.63
2018-11-03T04:28:41.332Z,12.70
2018-11-03T04:31:09.164Z,13.13
2018-11-03T04:33:36.995Z,12.30
2018-11-03T04:36:04.936Z,12.67
2018-11-03T04:38:33.056Z,12.77
2018-11-03T04:41:01.194Z,12.47
2018-11-03T04:43:29.004Z,12.67
2018-11-03T04:45:56.815Z,13.10
2018-11-03T04:48:24.615Z,13.57
2018-11-03T04:50:52.448Z,14.43
2018-11-03T04:53:20.273Z,14.37
2018-11-03T04:55:48.080Z,13.40
2018-11-03T04:58:15.941Z,13.43
2018-11-03T05:00:43.705Z,13.53
2018-11-03T05:03:11.469Z,12.57
2018-11-03T05:05:39.368Z,13.23
2018-11-03T05:08:07.189Z,13.10
2018-11-03T05:10:35.076Z,13.10
2018-11-03T05:13:03.240Z,13.17
2018-11-03T05:15:31.390Z,12.60
2018-11-03T05:17:59.316Z,13.00
2018-11-03T05:20:27.177Z,13.87
2018-11-03T05:22:55.116Z,13.27
2018-11-03T05:25:23.746Z,14.50
2018-11-03T05:27:51.627Z,13.67
2018-11-03T05:30:19.421Z,14.80
2018-11-03T05:32:47.274Z,13.77
2018-11-03T05:35:15.127Z,13.47
2018-11-03T05:37:42.924Z,14.17
2018-11-03T05:40:10.725Z,14.97
2018-11-03T05:42:38.544Z,14.07
2018-11-03T05:45:06.385Z,14.77
2018-11-03T05:47:34.212Z,14.50
2018-11-03T05:50:02.034Z,16.30
2018-11-03T05:52:29.816Z,16.40
2018-11-03T05:54:57.652Z,16.10
2018-11-03T05:57:25.368Z,16.57
2018-11-03T05:59:53.193Z,16.50
2018-11-03T06:02:21.012Z,16.33
2018-11-03T06:04:48.768Z,15.90
2018-11-03T06:07:16.597Z,16.07
2018-11-03T06:09:44.398Z,16.83
2018-11-03T06:12:12.193Z,18.27
2018-11-03T06:14:40.316Z,16.30
2018-11-03T06:17:08.993Z,16.47
2018-11-03T06:19:36.798Z,15.87
2018-11-03T06:22:04.738Z,18.13
2018-11-03T06:24:32.549Z,17.63
2018-11-03T06:27:00.392Z,17.87
2018-11-03T06:29:28.225Z,19.10
2018-11-03T06:31:56.093Z,18.67
2018-11-03T06:34:24.733Z,20.77
2018-11-03T06:36:52.513Z,23.83
2018-11-03T06:39:20.305Z,28.73
2018-11-03T06:41:48.215Z,36.73
2018-11-03T06:44:16.006Z,38.10
2018-11-03T06:46:43.847Z,41.80
2018-11-03T06:49:17.257Z,38.43
2018-11-03T06:51:45.085Z,28.73
2018-11-03T06:54:12.854Z,23.10
2018-11-03T06:56:40.674Z,20.30
2018-11-03T06:59:08.437Z,18.73
2018-11-03T07:01:36.265Z,19.33
2018-11-03T07:04:04.687Z,19.53
2018-11-03T07:06:32.548Z,20.13
2018-11-03T07:09:00.369Z,20.07
2018-11-03T07:11:28.282Z,19.67
2018-11-03T07:13:55.977Z,19.97
2018-11-03T07:16:23.761Z,20.00
2018-11-03T07:18:51.771Z,19.97
2018-11-03T07:21:19.625Z,21.20
2018-11-03T07:23:47.549Z,20.57
2018-11-03T07:26:15.378Z,20.73
2018-11-03T07:28:43.235Z,20.10
2018-11-03T07:31:11.023Z,20.57
2018-11-03T07:33:38.837Z,20.50
2018-11-03T07:36:06.604Z,19.77
2018-11-03T07:38:34.621Z,19.17
2018-11-03T07:41:02.452Z,21.17
2018-11-03T07:43:30.225Z,19.90
2018-11-03T07:45:58.105Z,18.87
2018-11-03T07:48:25.904Z,19.97
2018-11-03T07:50:53.704Z,24.47
2018-11-03T07:53:21.468Z,23.27
2018-11-03T07:55:49.249Z,24.00
2018-11-03T07:58:17.013Z,23.03
2018-11-03T08:00:44.824Z,21.50
2018-11-03T08:03:12.953Z,20.90
2018-11-03T08:05:40.820Z,20.17
2018-11-03T08:08:08.608Z,21.27
2018-11-03T08:10:36.490Z,19.73
2018-11-03T08:13:04.809Z,19.90
2018-11-03T08:15:32.713Z,20.50
2018-11-03T08:18:00.477Z,19.87
2018-11-03T08:20:28.261Z,19.43
2018-11-03T08:22:56.080Z,18.97
2018-11-03T08:25:23.905Z,19.23
2018-11-03T08:27:51.725Z,19.73
2018-11-03T08:30:19.502Z,19.67
2018-11-03T08:32:47.301Z,21.47
2018-11-03T08:35:15.112Z,21.73
2018-11-03T08:37:42.893Z,20.13
2018-11-03T08:40:11.767Z,18.33
2018-11-03T08:42:40.131Z,18.50
2018-11-03T08:45:11.541Z,18.63
2018-11-03T08:47:39.348Z,18.17
2018-11-03T08:50:08.968Z,18.20
2018-11-03T08:52:36.955Z,18.10
2018-11-03T08:55:05.500Z,18.10
2018-11-03T08:57:33.470Z,17.57
2018-11-03T09:00:01.402Z,18.60
2018-11-03T09:02:29.145Z,17.40
2018-11-03T09:04:56.957Z,18.33
2018-11-03T09:07:24.745Z,18.07
2018-11-03T09:09:52.554Z,18.20
2018-11-03T09:12:20.324Z,16.77
2018-11-03T09:14:48.252Z,17.50
2018-11-03T09:17:15.897Z,17.77
2018-11-03T09:19:43.696Z,17.70
2018-11-03T09:22:11.773Z,17.47
2018-11-03T09:24:39.825Z,17.53
2018-11-03T09:27:07.763Z,17.83
2018-11-03T09:29:35.696Z,16.83
2018-11-03T09:32:03.688Z,17.23
2018-11-03T09:34:31.721Z,16.37
2018-11-03T09:36:59.482Z,17.53
2018-11-03T09:39:27.291Z,16.67
2018-11-03T09:41:55.081Z,16.80
2018-11-03T09:44:22.870Z,17.27
2018-11-03T09:46:50.706Z,16.67
2018-11-03T09:49:20.634Z,17.42
2018-11-03T09:51:48.413Z,17.90
2018-11-03T09:54:16.257Z,17.50
2018-11-03T09:56:44.207Z,17.77
2018-11-03T09:59:11.890Z,19.20
2018-11-03T10:01:39.807Z,17.82
2018-11-03T10:04:07.753Z,17.35
2018-11-03T10:06:35.682Z,17.60
2018-11-03T10:09:04.341Z,17.17
2018-11-03T10:11:32.185Z,17.50
2018-11-03T10:14:00.021Z,18.27
2018-11-03T10:16:27.943Z,17.35
2018-11-03T10:18:55.857Z,17.57
2018-11-03T10:21:23.647Z,18.20
2018-11-03T10:23:51.519Z,17.87
2018-11-03T10:26:19.370Z,18.32
2018-11-03T10:28:47.951Z,18.55
2018-11-03T10:31:15.760Z,17.55
2018-11-03T10:33:43.687Z,17.30
2018-11-03T10:36:11.494Z,18.23
2018-11-03T10:38:39.345Z,17.25
2018-11-03T10:41:07.165Z,17.17
2018-11-03T10:43:35.234Z,16.40
2018-11-03T10:46:03.146Z,16.85
2018-11-03T10:48:30.911Z,17.32
2018-11-03T10:50:58.729Z,16.75
2018-11-03T10:53:26.557Z,17.17
2018-11-03T10:55:54.632Z,17.42
2018-11-03T10:58:22.410Z,16.30
2018-11-03T11:00:55.837Z,15.93
2018-11-03T11:03:29.144Z,16.67
2018-11-03T11:06:02.532Z,16.42
2018-11-03T11:08:36.205Z,16.52
2018-11-03T11:11:09.578Z,15.63
2018-11-03T11:13:38.524Z,15.50
2018-11-03T11:16:06.568Z,14.95
2018-11-03T11:18:34.346Z,14.90
2018-11-03T11:21:02.138Z,14.60
2018-11-03T11:23:30.460Z,15.58
2018-11-03T11:25:58.200Z,15.15
2018-11-03T11:28:26.050Z,14.55
2018-11-03T11:30:56.116Z,15.20
2018-11-03T11:33:23.947Z,14.15
2018-11-03T11:35:53.794Z,13.93
2018-11-03T11:38:21.653Z,13.88
2018-11-03T11:40:49.425Z,13.10
2018-11-03T11:43:17.269Z,13.32
2018-11-03T11:45:45.127Z,14.10
2018-11-03T11:48:13.001Z,14.30
2018-11-03T11:50:40.967Z,13.95
2018-11-03T11:53:08.768Z,13.85
2018-11-03T11:55:36.908Z,14.18
2018-11-03T11:58:07.283Z,13.93
2018-11-03T12:00:35.195Z,15.00
2018-11-03T12:03:02.953Z,14.05
2018-11-03T12:05:30.757Z,14.13
2018-11-03T12:07:58.517Z,14.55
2018-11-03T12:10:26.341Z,14.10
2018-11-03T12:12:54.126Z,14.20
2018-11-03T12:15:21.969Z,14.18
2018-11-03T12:17:49.860Z,13.90
2018-11-03T12:20:18.157Z,13.62
2018-11-03T12:22:45.953Z,13.58
2018-11-03T12:25:13.744Z,13.75
2018-11-03T12:27:41.549Z,13.43
2018-11-03T12:30:11.981Z,13.35
2018-11-03T12:32:40.077Z,13.35
2018-11-03T12:35:08.089Z,13.28
2018-11-03T12:37:36.518Z,13.22
2018-11-03T12:40:05.481Z,13.55
2018-11-03T12:42:33.633Z,13.68
2018-11-03T12:45:01.389Z,12.90
2018-11-03T12:47:29.184Z,13.18
2018-11-03T12:49:59.789Z,12.37
2018-11-03T12:52:29.833Z,12.53
2018-11-03T12:54:58.264Z,13.70
2018-11-03T12:57:26.293Z,14.23
2018-11-03T12:59:54.199Z,13.55
2018-11-03T13:02:22.027Z,13.75
2018-11-03T13:04:50.040Z,15.23
2018-11-03T13:07:17.812Z,14.50
2018-11-03T13:09:45.640Z,15.58
2018-11-03T13:12:13.515Z,15.15
2018-11-03T13:14:41.356Z,15.43
2018-11-03T13:17:09.236Z,15.38
2018-11-03T13:19:37.182Z,14.58
2018-11-03T13:22:05.150Z,15.48
2018-11-03T13:24:32.953Z,15.65
2018-11-03T13:27:00.745Z,14.93
2018-11-03T13:29:28.509Z,15.35
2018-11-03T13:31:56.287Z,15.23
2018-11-03T13:34:24.197Z,15.15
2018-11-03T13:36:51.960Z,15.05
2018-11-03T13:39:19.753Z,15.55
2018-11-03T13:41:47.681Z,14.98
2018-11-03T13:44:15.446Z,13.98
2018-11-03T13:46:43.513Z,14.33
2018-11-03T13:49:11.273Z,14.68
2018-11-03T13:51:39.042Z,14.40
2018-11-03T13:54:07.049Z,13.75
2018-11-03T13:56:34.884Z,13.88
2018-11-03T13:59:02.650Z,14.43
2018-11-03T14:01:30.449Z,14.30
2018-11-03T14:03:58.257Z,13.70
2018-11-03T14:06:26.061Z,12.88
2018-11-03T14:08:53.840Z,13.25
2018-11-03T14:11:21.677Z,14.73
2018-11-03T14:13:49.496Z,13.75
2018-11-03T14:16:17.292Z,14.58
2018-11-03T14:18:45.073Z,15.28
2018-11-03T14:21:12.872Z,14.58
2018-11-03T14:23:40.722Z,14.63
2018-11-03T14:26:08.651Z,13.88
2018-11-03T14:28:36.446Z,13.90
2018-11-03T14:31:04.319Z,13.83
2018-11-03T14:33:32.140Z,15.18
2018-11-03T14:35:59.935Z,14.73
2018-11-03T14:38:27.725Z,14.98
2018-11-03T14:40:55.549Z,15.55
2018-11-03T14:43:23.345Z,15.58
2018-11-03T14:45:51.184Z,15.03
2018-11-03T14:48:18.973Z,15.03
2018-11-03T14:50:46.831Z,15.38
2018-11-03T14:53:14.597Z,15.30
2018-11-03T14:55:42.451Z,15.30
2018-11-03T14:58:10.532Z,14.93
2018-11-03T15:00:38.595Z,15.47
2018-11-03T15:03:07.112Z,15.80
2018-11-03T15:05:34.910Z,17.47
2018-11-03T15:08:02.692Z,15.93
2018-11-03T15:10:30.485Z,16.07
2018-11-03T15:12:58.317Z,15.73
2018-11-03T15:15:26.080Z,16.40
2018-11-03T15:17:53.874Z,16.70
2018-11-03T15:20:21.648Z,16.97
2018-11-03T15:22:49.446Z,17.07
2018-11-03T15:25:17.264Z,17.10
2018-11-03T15:27:45.061Z,17.03
2018-11-03T15:30:13.988Z,17.73
2018-11-03T15:32:42.093Z,17.33
2018-11-03T15:35:10.674Z,17.33
2018-11-03T15:37:38.712Z,17.37
2018-11-03T15:40:08.485Z,18.07
2018-11-03T15:42:36.258Z,18.67
2018-11-03T15:45:04.693Z,18.90
2018-11-03T15:47:32.546Z,17.67
2018-11-03T15:50:00.289Z,17.93
2018-11-03T15:52:28.045Z,19.00
2018-11-03T15:54:55.812Z,18.47
2018-11-03T15:57:23.585Z,19.10
2018-11-03T15:59:51.394Z,19.10
2018-11-03T16:02:19.188Z,19.67
2018-11-03T16:04:46.977Z,19.67
2018-11-03T16:07:14.820Z,19.97
2018-11-03T16:09:42.677Z,19.87
2018-11-03T16:12:10.642Z,21.00
2018-11-03T16:14:38.624Z,20.73
2018-11-03T16:17:06.436Z,19.97
2018-11-03T16:19:34.275Z,23.20
2018-11-03T16:22:02.053Z,21.53
2018-11-03T16:24:29.823Z,20.57
2018-11-03T16:26:57.597Z,21.13
2018-11-03T16:29:25.388Z,21.13
2018-11-03T16:31:54.446Z,22.37
2018-11-03T16:34:22.815Z,23.13
2018-11-03T16:36:54.096Z,23.47
2018-11-03T16:39:21.893Z,23.20
2018-11-03T16:41:49.700Z,23.73
2018-11-03T16:44:17.456Z,23.43
2018-11-03T16:46:45.260Z,21.03
2018-11-03T16:49:16.930Z,22.70
2018-11-03T16:51:44.961Z,21.93
2018-11-03T16:54:12.838Z,24.40
2018-11-03T16:56:40.825Z,24.80
2018-11-03T16:59:08.916Z,25.13
2018-11-03T17:01:36.686Z,23.80
2018-11-03T17:04:04.740Z,23.87
2018-11-03T17:06:32.557Z,24.20
2018-11-03T17:09:00.672Z,24.07
2018-11-03T17:11:31.124Z,25.57
2018-11-03T17:13:58.878Z,26.07
2018-11-03T17:16:26.673Z,27.20
2018-11-03T17:18:54.933Z,28.97
2018-11-03T17:21:22.621Z,28.93
2018-11-03T17:23:50.489Z,28.30
2018-11-03T17:26:18.344Z,29.37
2018-11-03T17:28:46.153Z,28.93
2018-11-03T17:31:13.969Z,28.70
2018-11-03T17:33:41.857Z,27.20
2018-11-03T17:36:09.957Z,27.83
2018-11-03T17:38:37.775Z,26.40
2018-11-03T17:41:05.600Z,26.67
2018-11-03T17:43:33.388Z,25.60
2018-11-03T17:46:01.369Z,24.60
2018-11-03T17:48:29.165Z,25.60
2018-11-03T17:50:56.985Z,25.17
2018-11-03T17:53:24.795Z,25.53
2018-11-03T17:55:52.548Z,24.10
2018-11-03T17:58:20.585Z,23.43
2018-11-03T18:00:48.597Z,22.07
2018-11-03T18:03:16.169Z,21.93
2018-11-03T18:05:44.007Z,22.90
2018-11-03T18:08:11.770Z,27.13
2018-11-03T18:10:39.690Z,25.90
2018-11-03T18:13:07.502Z,25.63
2018-11-03T18:15:35.316Z,24.97
2018-11-03T18:18:03.128Z,25.37
2018-11-03T18:20:30.941Z,26.03
2018-11-03T18:22:58.709Z,25.40
2018-11-03T18:25:26.468Z,26.30
2018-11-03T18:27:54.244Z,25.10
2018-11-03T18:30:22.695Z,23.47
2018-11-03T18:32:50.740Z,23.53
2018-11-03T18:35:18.585Z,23.73
2018-11-03T18:37:46.443Z,24.57
2018-11-03T18:40:14.273Z,23.33
2018-11-03T18:42:42.097Z,22.23
2018-11-03T18:45:09.968Z,22.67
2018-11-03T18:47:37.756Z,21.07
2018-11-03T18:50:08.497Z,20.43
2018-11-03T18:52:36.269Z,20.57
2018-11-03T18:55:04.255Z,19.57
2018-11-03T18:57:32.034Z,19.30
2018-11-03T18:59:59.805Z,20.17
2018-11-03T19:02:27.637Z,20.27
2018-11-03T19:04:55.341Z,21.43
2018-11-03T19:07:23.257Z,21.00
2018-11-03T19:09:51.048Z,22.03
2018-11-03T19:12:18.848Z,21.30
2018-11-03T19:14:46.644Z,22.47
2018-11-03T19:17:14.643Z,22.40
2018-11-03T19:19:42.401Z,22.43
2018-11-03T19:22:10.481Z,22.10
2018-11-03T19:24:38.250Z,22.53
2018-11-03T19:27:05.993Z,23.17
2018-11-03T19:29:33.801Z,21.77
2018-11-03T19:32:01.664Z,22.43
2018-11-03T19:34:29.428Z,20.97
2018-11-03T19:36:57.213Z,19.73
2018-11-03T19:39:24.998Z,18.57
2018-11-03T19:41:52.808Z,17.87
2018-11-03T19:44:20.593Z,17.77
2018-11-03T19:46:48.426Z,18.17
2018-11-03T19:49:16.249Z,17.57
2018-11-03T19:51:44.099Z,16.37
2018-11-03T19:54:11.889Z,17.73
2018-11-03T19:56:39.768Z,16.80
2018-11-03T19:59:07.541Z,17.17
2018-11-03T20:01:35.327Z,15.87
2018-11-03T20:04:03.177Z,16.57
2018-11-03T20:06:30.947Z,16.27
2018-11-03T20:08:58.780Z,17.17
2018-11-03T20:11:28.870Z,18.20
2018-11-03T20:13:56.747Z,16.90
2018-11-03T20:16:24.511Z,16.93
2018-11-03T20:18:52.301Z,17.63
2018-11-03T20:21:20.117Z,17.13
2018-11-03T20:23:47.884Z,17.60
2018-11-03T20:26:15.748Z,16.17
2018-11-03T20:28:43.569Z,17.33
2018-11-03T20:31:11.470Z,17.57
2018-11-03T20:33:39.353Z,18.53
2018-11-03T20:36:07.161Z,17.03
2018-11-03T20:38:34.916Z,18.27
2018-11-03T20:41:02.929Z,18.17
2018-11-03T20:43:31.161Z,18.80
2018-11-03T20:45:59.212Z,18.60
2018-11-03T20:48:26.996Z,19.73
2018-11-03T20:51:11.981Z,22.03
2018-11-03T20:53:40.425Z,20.63
2018-11-03T20:56:08.596Z,21.20
2018-11-03T20:58:36.455Z,20.83
2018-11-03T21:01:04.730Z,19.37
2018-11-03T21:03:32.674Z,19.93
2018-11-03T21:06:00.481Z,20.63
2018-11-03T21:08:28.377Z,20.33
2018-11-03T21:10:56.192Z,20.00
2018-11-03T21:13:23.997Z,20.70
2018-11-03T21:15:51.775Z,21.30
2018-11-03T21:18:19.611Z,20.70
2018-11-03T21:20:47.520Z,21.40
2018-11-03T21:23:15.445Z,22.57
2018-11-03T21:25:43.341Z,21.40
2018-11-03T21:28:11.273Z,21.03
2018-11-03T21:30:39.075Z,20.03
2018-11-03T21:33:07.040Z,20.23
2018-11-03T21:35:34.689Z,19.63
2018-11-03T21:38:02.495Z,19.33
2018-11-03T21:40:30.293Z,18.73
2018-11-03T21:42:58.098Z,19.67
2018-11-03T21:45:25.947Z,19.10
2018-11-03T21:47:53.732Z,19.73
2018-11-03T21:50:21.549Z,19.97
2018-11-03T21:52:49.321Z,20.73
2018-11-03T21:55:17.166Z,20.00
2018-11-03T21:57:44.937Z,19.10
2018-11-03T22:00:12.757Z,19.93
2018-11-03T22:02:40.981Z,19.87
2018-11-03T22:05:10.489Z,19.43
2018-11-03T22:07:38.292Z,19.63
2018-11-03T22:10:06.166Z,19.77
2018-11-03T22:12:33.937Z,18.70
2018-11-03T22:15:01.709Z,18.70
2018-11-03T22:17:29.477Z,20.20
2018-11-03T22:19:57.320Z,19.20
2018-11-03T22:22:25.128Z,20.07
2018-11-03T22:24:52.922Z,21.53
2018-11-03T22:27:21.004Z,18.47
2018-11-03T22:29:48.818Z,19.47
2018-11-03T22:32:16.682Z,19.37
2018-11-03T22:34:44.476Z,18.67
2018-11-03T22:37:12.368Z,18.67
2018-11-03T22:39:40.225Z,19.50
2018-11-03T22:42:08.069Z,20.53
2018-11-03T22:44:35.829Z,20.03
2018-11-03T22:47:03.741Z,20.03
2018-11-03T22:49:31.532Z,20.67
2018-11-03T22:51:59.569Z,20.77
2018-11-03T22:54:27.626Z,18.57
2018-11-03T22:56:55.632Z,19.90
2018-11-03T22:59:23.643Z,19.83
2018-11-03T23:01:51.669Z,19.10
2018-11-03T23:04:19.663Z,19.03
2018-11-03T23:06:47.677Z,20.13
2018-11-03T23:09:15.683Z,19.67
2018-11-03T23:11:43.785Z,18.10
2018-11-03T23:14:11.709Z,20.03
2018-11-03T23:16:39.604Z,18.87
2018-11-03T23:19:07.437Z,18.83
2018-11-03T23:21:35.322Z,18.60
2018-11-03T23:24:03.150Z,19.90
2018-11-03T23:26:31.158Z,20.20
2018-11-03T23:28:59.152Z,19.73
2018-11-03T23:31:28.557Z,19.93
2018-11-03T23:33:56.388Z,19.50
2018-11-03T23:36:24.308Z,20.33
2018-11-03T23:38:52.197Z,20.90
2018-11-03T23:41:20.082Z,20.77
2018-11-03T23:43:48.096Z,20.33
2018-11-03T23:46:16.034Z,20.00
2018-11-03T23:48:43.962Z,20.33
2018-11-03T23:51:11.789Z,20.80
2018-11-03T23:53:39.573Z,20.63
2018-11-03T23:56:07.448Z,20.70
2018-11-03T23:58:35.609Z,20.87
